Decoded Metar for MMZC (ZACATECAS in MEXICO) (IATA:ZCL) | Meteo·Mobile Aviation Weather
aviador You're here:

MMZC Decoded Metar

ZACATECAS in MEXICO
Report Time2019-04-24 23:42:00
UTC Time2019-04-25 00:20:57
Flight Rules vfr VFR
Wind240° at 20 kt
W.Decomp.*RWY 20: 17.0 kt HW 10.6 kt RCW
Visibility9999 m
Phenomena:N/A
Clouds:Broken 100 Hf
Broken 200 Hf
Expected CloudBase > 12,800 ft AGL from Temp-Dew spread
Ceiling10,000 ft
Temp23°C (ISA +22)
Dew Point-9°C (11% RH)
AAT12.8°C
QNH1019 hPa
Density Alt9,505 ft
Elevation7,142 ft
Report Wrong Elevation
Raw Report
MMZC 242342Z 24020KT 10SM BKN100 BKN200 23/M09 A3009 RMK 8/027=

Extra information for MMZC:More info

Metar Taf Metar & Taf Last 4 Metars F.Rules Stats Wind Profile Meteogram Temp Stats Airport Information Weather charts Add Link Nearby VenuesMetar ALERT Operation Metar Decoded Social comments